Galena, Ohio
Current Conditions -  °F | °C
As of 12:16 AM on Monday 20 Oct 2014 (Local Time) from KDLZ Reporting Station
Clear Clear  
Wind Chill: 39°   Ceiling: Unl
Heat Index: 43°   Visibility: 10mi
Dew Point: 34°   Wind: 6mph
Humidity: 70%   Direction: 200°SSW
Pressure: 30.04"   Gusts: NA
Location:  40.22°N, 82.88°W
Report Text: KDLZ 200416Z AUTO 20005KT 10SM CLR 06/01 A3004 RMK AO2
Loading
Personal Weather Stations






























Interactive Weather Map
Tropical Storm Tracking
New forecast layout! Learn more

10-Day Weather Forecast

Advertisements
Track Severe Weather on mobile